Time;durP1;ratioP1;P1;durP2;ratioP2;P2;SDS_P1;SDS_P2;PMS_P1;PMS_P2;Temp;Humidity;BMP_temperature;BMP_pressure;BME280_temperature;BME280_humidity;BME280_pressure;Samples;Min_cycle;Max_cycle;Signal;HPM_P1;HPM_P2
2022/07/17 00:02:27;;;;;;;3.03;1.30;;;;;;;24.98;25.98;102226.13;4990492;28;20050;-71
2022/07/17 00:04:56;;;;;;;2.60;1.20;;;;;;;24.96;25.69;102224.53;4990103;28;20054;-71
2022/07/17 00:07:25;;;;;;;3.67;1.35;;;;;;;24.96;25.86;102227.31;4991582;28;20039;-71
2022/07/17 00:09:53;;;;;;;3.22;1.20;;;;;;;24.91;26.04;102230.59;4989876;28;20038;-71
2022/07/17 00:12:22;;;;;;;2.63;1.33;;;;;;;24.89;25.94;102224.28;4986803;28;20037;-71
2022/07/17 00:14:51;;;;;;;2.97;1.05;;;;;;;24.87;25.57;102222.72;4969349;28;20042;-71
2022/07/17 00:17:19;;;;;;;3.03;1.35;;;;;;;24.84;25.66;102220.25;4990155;28;20066;-72
2022/07/17 00:19:48;;;;;;;2.80;1.13;;;;;;;24.82;25.70;102222.31;4988368;28;20586;-71
2022/07/17 00:22:16;;;;;;;2.67;1.30;;;;;;;24.80;26.37;102224.38;4990037;28;20117;-71
2022/07/17 00:24:45;;;;;;;2.95;1.17;;;;;;;24.79;25.97;102209.63;4971839;28;20038;-71
2022/07/17 00:27:13;;;;;;;3.78;1.40;;;;;;;24.76;26.10;102214.66;4990148;28;20481;-71
2022/07/17 00:29:41;;;;;;;3.35;1.40;;;;;;;24.73;26.34;102204.72;4971200;28;20509;-70
2022/07/17 00:32:09;;;;;;;3.13;1.35;;;;;;;24.70;26.44;102207.84;4990050;28;20038;-71
2022/07/17 00:34:37;;;;;;;2.63;1.30;;;;;;;24.69;26.45;102211.66;4972320;28;20042;-71
2022/07/17 00:37:05;;;;;;;3.15;1.48;;;;;;;24.68;26.40;102211.81;4990192;28;20045;-71
2022/07/17 00:39:34;;;;;;;3.28;1.17;;;;;;;24.64;26.47;102209.34;4989118;28;20137;-71
2022/07/17 00:42:05;;;;;;;2.75;1.35;;;;;;;24.64;26.57;102208.47;4982534;28;20104;-71
2022/07/17 00:44:33;;;;;;;2.50;1.27;;;;;;;24.60;26.08;102201.50;4971875;28;20470;-71
2022/07/17 00:47:01;;;;;;;2.70;1.10;;;;;;;24.57;26.36;102208.25;4990349;28;20041;-71
2022/07/17 00:49:29;;;;;;;2.97;1.40;;;;;;;24.56;26.32;102212.06;4971932;28;20572;-71
2022/07/17 00:51:57;;;;;;;3.00;1.45;;;;;;;24.54;26.24;102210.50;4987459;28;20074;-71
2022/07/17 00:54:26;;;;;;;3.35;1.40;;;;;;;24.53;26.54;102214.28;4988221;28;20065;-71
2022/07/17 00:56:59;;;;;;;3.58;1.38;;;;;;;24.53;26.46;102208.75;4978358;28;20066;-71
2022/07/17 00:59:29;;;;;;;3.22;1.20;;;;;;;24.48;26.58;102214.75;4988200;28;20050;-71
2022/07/17 01:01:58;;;;;;;3.22;1.20;;;;;;;24.45;26.33;102217.88;4988649;28;20038;-71
2022/07/17 01:04:26;;;;;;;3.28;1.50;;;;;;;24.44;26.53;102216.13;4989368;28;20038;-71
2022/07/17 01:06:54;;;;;;;2.50;1.08;;;;;;;24.41;26.50;102212.78;4990706;28;20038;-71
2022/07/17 01:09:22;;;;;;;3.17;1.17;;;;;;;24.39;26.66;102207.38;4989455;28;20066;-71
2022/07/17 01:11:51;;;;;;;3.28;1.35;;;;;;;24.38;26.97;102210.34;4989770;28;20026;-71
2022/07/17 01:14:19;;;;;;;3.38;1.30;;;;;;;24.34;26.58;102207.00;4989551;28;20042;-71
2022/07/17 01:16:49;;;;;;;2.85;1.30;;;;;;;24.35;26.89;102214.31;4985166;28;20733;-71
2022/07/17 01:19:18;;;;;;;2.70;1.20;;;;;;;24.29;27.04;102209.41;4990232;28;20133;-71
2022/07/17 01:21:49;;;;;;;4.25;1.67;;;;;;;24.30;27.20;102216.66;4972330;28;20069;-71
2022/07/17 01:24:19;;;;;;;2.50;1.20;;;;;;;24.23;27.06;102210.00;4989420;28;20500;-71
2022/07/17 01:26:49;;;;;;;2.88;1.30;;;;;;;24.24;27.23;102218.19;4989304;28;20165;-70
2022/07/17 01:29:18;;;;;;;3.05;1.55;;;;;;;24.22;27.28;102222.13;4987916;28;20499;-71
2022/07/17 01:31:46;;;;;;;2.90;1.23;;;;;;;24.19;27.15;102219.66;4988872;28;20042;-71
2022/07/17 01:34:15;;;;;;;3.05;1.30;;;;;;;24.16;26.96;102214.41;4988919;28;20122;-71
2022/07/17 01:36:43;;;;;;;3.20;1.25;;;;;;;24.14;27.11;102222.91;4989576;28;20587;-72
2022/07/17 01:39:13;;;;;;;3.72;1.42;;;;;;;24.14;27.52;102222.91;4973666;28;20386;-71
2022/07/17 01:41:41;;;;;;;2.58;1.27;;;;;;;24.10;27.47;102218.72;4974793;28;20133;-71
2022/07/17 01:44:09;;;;;;;3.22;1.20;;;;;;;24.08;27.24;102220.75;4991794;28;20603;-71
2022/07/17 01:46:38;;;;;;;3.42;1.88;;;;;;;24.06;27.10;102210.84;4993731;28;20046;-71
2022/07/17 01:49:06;;;;;;;2.92;1.30;;;;;;;24.03;27.48;102211.19;4974358;28;20397;-71
2022/07/17 01:51:34;;;;;;;3.65;1.30;;;;;;;23.99;27.13;102206.94;4994174;28;20045;-71
2022/07/17 01:54:04;;;;;;;3.53;1.38;;;;;;;23.98;27.45;102207.97;4992098;28;20373;-71
2022/07/17 01:56:33;;;;;;;3.03;1.40;;;;;;;23.97;27.40;102203.44;4979663;28;20055;-71
2022/07/17 01:59:01;;;;;;;2.70;1.40;;;;;;;23.92;27.86;102198.38;4991038;28;20100;-71
2022/07/17 02:01:30;;;;;;;3.15;1.40;;;;;;;23.92;27.79;102205.84;4971657;28;20081;-70
2022/07/17 02:03:59;;;;;;;5.05;1.60;;;;;;;23.88;27.56;102206.13;4986939;28;20137;-71
2022/07/17 02:06:27;;;;;;;2.92;1.23;;;;;;;23.87;27.47;102207.19;4973826;28;20087;-71
2022/07/17 02:08:55;;;;;;;3.15;1.30;;;;;;;23.85;27.79;102206.47;4991312;28;20042;-71
2022/07/17 02:11:23;;;;;;;4.47;1.40;;;;;;;23.84;27.90;102203.84;4992674;28;20054;-71
2022/07/17 02:13:52;;;;;;;3.85;1.38;;;;;;;23.83;27.44;102202.97;4974857;28;20054;-71
2022/07/17 02:16:20;;;;;;;3.53;1.45;;;;;;;23.81;27.54;102205.03;4992174;28;20061;-71
2022/07/17 02:18:48;;;;;;;3.10;1.35;;;;;;;23.79;27.69;102203.47;4974252;28;20042;-71
2022/07/17 02:21:17;;;;;;;3.30;1.55;;;;;;;23.76;27.79;102196.31;4970761;28;20424;-71
2022/07/17 02:23:45;;;;;;;2.47;1.40;;;;;;;23.73;27.99;102188.28;4992231;28;20054;-71
2022/07/17 02:26:13;;;;;;;3.42;1.48;;;;;;;23.71;28.17;102195.03;4975566;28;20077;-70
2022/07/17 02:28:41;;;;;;;3.42;1.40;;;;;;;23.67;27.85;102202.78;4974261;28;20808;-72
2022/07/17 02:31:11;;;;;;;2.92;1.40;;;;;;;23.67;28.50;102205.56;4992127;28;20515;-71
2022/07/17 02:33:39;;;;;;;3.85;1.30;;;;;;;23.63;28.44;102208.81;4992790;28;20034;-71
2022/07/17 02:36:07;;;;;;;2.95;1.30;;;;;;;23.60;28.25;102195.25;4992223;28;20092;-71
2022/07/17 02:38:35;;;;;;;3.05;1.33;;;;;;;23.57;28.71;102199.19;4992240;28;20042;-71
2022/07/17 02:41:04;;;;;;;5.15;1.60;;;;;;;23.56;28.33;102204.88;4990633;28;20058;-71
2022/07/17 02:43:32;;;;;;;2.95;1.45;;;;;;;23.53;28.18;102206.09;4970594;28;20077;-70
2022/07/17 02:46:01;;;;;;;3.28;1.33;;;;;;;23.50;28.64;102198.94;4989824;28;20049;-70
2022/07/17 02:48:30;;;;;;;3.85;1.50;;;;;;;23.49;28.37;102199.97;4991809;28;20042;-71
2022/07/17 02:50:58;;;;;;;3.20;1.50;;;;;;;23.46;28.78;102196.63;4990122;28;20149;-71
2022/07/17 02:53:27;;;;;;;2.80;1.42;;;;;;;23.43;28.82;102200.56;4990796;28;20121;-71
2022/07/17 02:55:55;;;;;;;4.07;1.50;;;;;;;23.40;28.57;102206.41;4972158;28;20065;-71
2022/07/17 02:58:22;;;;;;;2.70;1.40;;;;;;;23.39;28.92;102209.34;4991157;28;20034;-71
2022/07/17 03:00:50;;;;;;;2.53;1.40;;;;;;;23.36;29.01;102209.63;4990625;28;20548;-71
2022/07/17 03:03:20;;;;;;;3.33;1.67;;;;;;;23.33;28.43;102210.81;4990285;28;20397;-71
2022/07/17 03:05:49;;;;;;;3.60;1.60;;;;;;;23.33;29.01;102210.81;4991687;28;20541;-71
2022/07/17 03:08:17;;;;;;;2.33;1.33;;;;;;;23.28;28.83;102209.53;4992762;28;20120;-72
2022/07/17 03:10:45;;;;;;;3.90;1.55;;;;;;;23.26;29.00;102215.22;4973711;28;20046;-71
2022/07/17 03:13:13;;;;;;;3.08;1.40;;;;;;;23.24;28.64;102216.38;4989002;28;20460;-71
2022/07/17 03:15:43;;;;;;;3.15;1.52;;;;;;;23.22;29.09;102222.09;4989664;28;20050;-71
2022/07/17 03:18:11;;;;;;;3.85;1.40;;;;;;;23.19;29.01;102221.53;4988484;28;20062;-71
2022/07/17 03:20:39;;;;;;;4.35;1.60;;;;;;;23.17;28.94;102220.78;4989123;28;20081;-71
2022/07/17 03:23:08;;;;;;;4.50;1.60;;;;;;;23.16;29.19;102217.16;4990716;28;20066;-71
2022/07/17 03:25:36;;;;;;;4.55;1.38;;;;;;;23.11;29.07;102225.06;4987431;28;20559;-71
2022/07/17 03:28:04;;;;;;;3.03;1.38;;;;;;;23.10;29.19;102229.72;4987121;28;20104;-71
2022/07/17 03:30:33;;;;;;;2.67;1.38;;;;;;;23.07;28.84;102224.47;4988745;28;20061;-73
2022/07/17 03:33:01;;;;;;;3.35;1.50;;;;;;;23.06;29.12;102225.47;4990677;28;20076;-71
2022/07/17 03:35:29;;;;;;;4.13;1.67;;;;;;;23.03;29.05;102222.16;4989282;28;20043;-71
2022/07/17 03:37:57;;;;;;;2.30;1.30;;;;;;;23.00;29.04;102220.56;4990469;28;20108;-71
2022/07/17 03:40:26;;;;;;;3.05;1.33;;;;;;;23.00;29.48;102225.22;4988406;28;20050;-71
2022/07/17 03:42:54;;;;;;;2.83;1.50;;;;;;;22.96;29.70;102224.66;4988799;28;20043;-71
2022/07/17 03:45:22;;;;;;;2.90;1.55;;;;;;;22.94;29.19;102225.81;4987932;28;20050;-71
2022/07/17 03:47:50;;;;;;;3.58;1.60;;;;;;;22.93;29.69;102232.38;4991181;28;20042;-71
2022/07/17 03:50:18;;;;;;;3.05;1.70;;;;;;;22.90;29.72;102227.13;4989514;28;20077;-70
2022/07/17 03:52:47;;;;;;;3.50;1.58;;;;;;;22.88;29.39;102226.44;4997165;28;20044;-71
2022/07/17 03:55:15;;;;;;;3.80;1.58;;;;;;;22.85;29.42;102229.50;4989101;28;20108;-71
2022/07/17 03:57:44;;;;;;;3.00;1.52;;;;;;;22.85;29.34;102222.06;4987957;28;20053;-71
2022/07/17 04:00:13;;;;;;;3.08;1.52;;;;;;;22.80;29.67;102226.31;4986789;28;20344;-71
2022/07/17 04:02:42;;;;;;;2.90;1.50;;;;;;;22.77;29.51;102228.34;4990203;28;20370;-71
2022/07/17 04:05:11;;;;;;;3.28;1.55;;;;;;;22.75;29.79;102229.50;4971287;28;20081;-71
2022/07/17 04:07:40;;;;;;;4.93;1.70;;;;;;;22.72;30.00;102229.78;4972506;28;20074;-71
2022/07/17 04:10:10;;;;;;;3.63;1.63;;;;;;;22.70;29.66;102232.69;4983256;28;20050;-71
2022/07/17 04:12:38;;;;;;;2.38;1.50;;;;;;;22.66;29.63;102231.22;4985686;28;20038;-71
2022/07/17 04:15:09;;;;;;;3.15;1.60;;;;;;;22.67;29.89;102229.34;4988661;28;20078;-71
2022/07/17 04:17:37;;;;;;;2.53;1.30;;;;;;;22.61;30.18;102219.72;4989890;28;20262;-72
2022/07/17 04:20:06;;;;;;;3.20;1.70;;;;;;;22.61;29.98;102243.78;4971315;28;20405;-71
2022/07/17 04:22:34;;;;;;;3.78;1.70;;;;;;;22.57;30.30;102234.88;4989373;28;20042;-72
2022/07/17 04:25:02;;;;;;;2.83;1.52;;;;;;;22.55;29.88;102225.88;4970058;28;20122;-71
2022/07/17 04:27:30;;;;;;;2.72;1.40;;;;;;;22.52;30.57;102222.50;4989896;28;20046;-71
2022/07/17 04:29:58;;;;;;;3.58;1.98;;;;;;;22.50;30.19;102221.78;4984197;28;20042;-71
2022/07/17 04:32:27;;;;;;;5.05;1.75;;;;;;;22.49;30.22;102225.56;4983063;28;20122;-71
2022/07/17 04:34:55;;;;;;;2.38;1.35;;;;;;;22.46;30.70;102231.41;4986407;28;20465;-72
2022/07/17 04:37:23;;;;;;;3.90;1.42;;;;;;;22.44;30.47;102233.44;4990100;28;20125;-71
2022/07/17 04:39:51;;;;;;;2.92;1.50;;;;;;;22.41;30.72;102240.13;4989177;28;20125;-71
2022/07/17 04:42:19;;;;;;;3.78;1.77;;;;;;;22.40;30.48;102232.88;4987422;28;20042;-70
2022/07/17 04:44:47;;;;;;;3.78;1.60;;;;;;;22.38;30.48;102243.22;4985780;28;20137;-72
2022/07/17 04:47:15;;;;;;;3.10;1.40;;;;;;;22.38;30.56;102257.03;4986134;28;20140;-72
2022/07/17 04:49:44;;;;;;;3.78;1.50;;;;;;;22.37;31.13;102258.94;4988011;28;20053;-72
2022/07/17 04:52:12;;;;;;;3.30;1.50;;;;;;;22.35;30.96;102249.91;4987976;28;20400;-72
2022/07/17 04:54:41;;;;;;;2.58;1.38;;;;;;;22.34;30.80;102239.84;4988903;28;20060;-72
2022/07/17 04:57:09;;;;;;;3.58;1.55;;;;;;;22.34;30.99;102244.50;4989065;28;20069;-72
2022/07/17 04:59:37;;;;;;;3.22;1.77;;;;;;;22.34;31.53;102238.97;4987628;28;20564;-72
2022/07/17 05:02:05;;;;;;;3.42;1.65;;;;;;;22.32;31.47;102236.34;4986373;28;20076;-72
2022/07/17 05:04:33;;;;;;;4.97;2.00;;;;;;;22.32;31.46;102233.56;4988584;28;20074;-72
2022/07/17 05:07:03;;;;;;;3.35;1.70;;;;;;;22.36;31.81;102248.00;4987604;28;20388;-71
2022/07/17 05:09:31;;;;;;;3.47;1.52;;;;;;;22.33;32.03;102257.47;4987672;28;20042;-72
2022/07/17 05:12:03;;;;;;;3.45;1.70;;;;;;;22.35;32.17;102249.91;4987454;28;20049;-72
2022/07/17 05:14:31;;;;;;;3.33;1.63;;;;;;;22.42;32.11;102257.59;4987939;28;20128;-71
2022/07/17 05:16:59;;;;;;;3.13;1.55;;;;;;;22.51;32.24;102254.84;4984571;28;20034;-72
2022/07/17 05:19:27;;;;;;;3.78;1.52;;;;;;;22.63;32.32;102262.00;4986014;28;20050;-72
2022/07/17 05:21:55;;;;;;;3.35;1.42;;;;;;;22.78;32.39;102256.91;4965100;28;20045;-72
2022/07/17 05:24:25;;;;;;;3.35;1.58;;;;;;;22.97;31.75;102259.66;4988634;28;20081;-72
2022/07/17 05:26:53;;;;;;;3.63;1.45;;;;;;;23.13;31.61;102257.13;4987719;28;20038;-72
2022/07/17 05:29:21;;;;;;;3.63;1.80;;;;;;;23.34;31.70;102262.44;4982356;28;20096;-72
2022/07/17 05:31:50;;;;;;;4.30;1.60;;;;;;;23.55;31.13;102272.47;4987523;28;20436;-72
2022/07/17 05:34:18;;;;;;;2.45;1.38;;;;;;;23.73;31.56;102276.16;4987773;28;20083;-72
2022/07/17 05:36:46;;;;;;;4.35;1.40;;;;;;;23.92;30.92;102289.06;4984658;28;20454;-72
2022/07/17 05:39:14;;;;;;;4.88;1.52;;;;;;;24.10;30.79;102281.66;4981552;28;20135;-72
2022/07/17 05:41:43;;;;;;;3.42;1.30;;;;;;;24.29;30.73;102287.13;4979684;28;20047;-72
2022/07/17 05:44:11;;;;;;;2.88;1.48;;;;;;;24.43;30.19;102291.25;4983510;28;20050;-72
2022/07/17 05:46:39;;;;;;;3.17;1.25;;;;;;;24.58;30.34;102292.44;4988727;28;20076;-72
2022/07/17 05:49:07;;;;;;;2.85;1.30;;;;;;;24.74;30.12;102280.59;4988655;28;20058;-72
2022/07/17 05:51:35;;;;;;;4.65;1.70;;;;;;;24.88;29.59;102280.00;4969752;28;20093;-72
2022/07/17 05:54:03;;;;;;;2.20;1.30;;;;;;;25.02;29.77;102291.47;4986570;28;20311;-72
2022/07/17 05:56:31;;;;;;;4.60;1.55;;;;;;;25.16;29.45;102290.00;4988107;28;20046;-73
2022/07/17 05:59:01;;;;;;;3.03;1.30;;;;;;;25.30;29.52;102297.72;4986215;28;20074;-73
2022/07/17 06:01:29;;;;;;;3.95;1.60;;;;;;;25.40;29.13;102294.84;4970472;28;20039;-72
2022/07/17 06:03:57;;;;;;;3.53;1.45;;;;;;;25.50;28.99;102300.28;4987046;28;20050;-72
2022/07/17 06:06:26;;;;;;;5.25;1.60;;;;;;;25.59;29.06;102294.66;4989263;28;20042;-72
2022/07/17 06:08:54;;;;;;;3.40;1.40;;;;;;;25.68;28.97;102288.09;4981412;28;20505;-72
2022/07/17 06:11:21;;;;;;;5.60;1.58;;;;;;;25.77;28.43;102289.88;4988850;28;20443;-71
2022/07/17 06:13:57;;;;;;;3.33;1.55;;;;;;;25.86;28.79;102284.34;4988248;28;20494;-72
2022/07/17 06:16:26;;;;;;;3.97;1.42;;;;;;;25.97;28.54;102290.47;4988879;28;20042;-73
2022/07/17 06:18:54;;;;;;;3.20;1.20;;;;;;;26.03;28.07;102286.13;4984520;28;20502;-78
2022/07/17 06:21:22;;;;;;;3.15;1.30;;;;;;;26.11;27.97;102286.16;4986184;28;20038;-78
2022/07/17 06:23:51;;;;;;;2.50;1.35;;;;;;;26.19;28.06;102276.97;4990560;28;20130;-78
2022/07/17 06:26:19;;;;;;;3.60;1.30;;;;;;;26.25;27.76;102279.94;4992376;28;20152;-79
2022/07/17 06:28:47;;;;;;;3.03;1.38;;;;;;;26.34;27.77;102272.53;4990317;28;20042;-78
2022/07/17 06:31:15;;;;;;;4.30;1.23;;;;;;;26.41;27.84;102276.34;4974173;28;20453;-74
2022/07/17 06:33:45;;;;;;;3.97;1.60;;;;;;;26.50;27.55;102270.63;4988979;28;20477;-77
2022/07/17 06:36:13;;;;;;;2.83;1.45;;;;;;;26.56;27.18;102270.97;4973904;28;20053;-76
2022/07/17 06:38:41;;;;;;;2.65;1.25;;;;;;;26.62;27.14;102260.00;4989633;28;20486;-77
2022/07/17 06:41:09;;;;;;;2.75;1.15;;;;;;;26.69;27.23;102257.38;4990961;28;20082;-76
2022/07/17 06:43:37;;;;;;;2.95;1.30;;;;;;;26.75;27.33;102260.38;4991124;28;20497;-76
2022/07/17 06:46:05;;;;;;;3.10;1.20;;;;;;;26.81;26.90;102256.88;4972244;28;20096;-76
2022/07/17 06:48:33;;;;;;;2.50;1.10;;;;;;;26.88;26.82;102260.69;4992898;28;20042;-77
2022/07/17 06:51:03;;;;;;;2.58;1.00;;;;;;;26.98;26.80;102260.56;4991081;28;20046;-76
2022/07/17 06:53:31;;;;;;;4.75;1.33;;;;;;;27.02;26.96;102258.28;4989291;28;20046;-78
2022/07/17 06:55:59;;;;;;;3.15;1.58;;;;;;;27.07;27.07;102253.94;4985050;28;20034;-76
2022/07/17 06:58:27;;;;;;;2.83;1.10;;;;;;;27.14;26.50;102254.09;4991941;28;20097;-76
2022/07/17 07:00:55;;;;;;;3.05;1.20;;;;;;;27.18;26.81;102261.03;4990319;28;20046;-77
2022/07/17 07:03:24;;;;;;;2.03;1.15;;;;;;;27.24;26.81;102255.63;4991807;28;20057;-77
2022/07/17 07:05:52;;;;;;;2.42;1.00;;;;;;;27.32;26.39;102257.53;4990737;28;20046;-77
2022/07/17 07:08:22;;;;;;;1.98;1.08;;;;;;;27.42;26.36;102258.22;4991760;28;20038;-76
2022/07/17 07:10:50;;;;;;;4.40;1.30;;;;;;;27.48;26.25;102262.19;4982774;28;20063;-72
2022/07/17 07:13:18;;;;;;;2.50;1.10;;;;;;;27.56;26.04;102267.78;4987136;28;20242;-75
2022/07/17 07:15:46;;;;;;;2.83;1.13;;;;;;;27.65;25.92;102269.50;4991208;28;20124;-76
2022/07/17 07:18:14;;;;;;;2.53;1.08;;;;;;;27.74;25.80;102276.78;4974270;28;20069;-78
2022/07/17 07:20:42;;;;;;;3.13;1.30;;;;;;;27.81;25.97;102269.44;4988990;28;20453;-81
2022/07/17 07:23:10;;;;;;;4.03;1.52;;;;;;;27.89;25.70;102266.59;4991090;28;20061;-74
2022/07/17 07:25:40;;;;;;;3.53;1.27;;;;;;;28.00;25.67;102274.56;4990224;28;20148;-76
2022/07/17 07:28:08;;;;;;;2.45;1.10;;;;;;;28.04;25.68;102263.91;4989780;28;20042;-77
2022/07/17 07:30:36;;;;;;;2.50;1.25;;;;;;;28.13;25.40;102257.22;4989911;28;20097;-73
2022/07/17 07:33:05;;;;;;;2.55;1.00;;;;;;;28.21;25.48;102265.56;4991414;28;20048;-73
2022/07/17 07:35:33;;;;;;;3.63;1.10;;;;;;;28.29;25.33;102268.31;4988674;28;20050;-73
2022/07/17 07:38:02;;;;;;;2.88;1.27;;;;;;;28.38;25.31;102271.94;4972493;28;20409;-75
2022/07/17 07:40:31;;;;;;;3.72;1.20;;;;;;;28.48;25.03;102274.50;4990545;28;20516;-74
2022/07/17 07:43:00;;;;;;;2.58;1.27;;;;;;;28.60;25.08;102267.41;4990463;28;20046;-74
2022/07/17 07:45:29;;;;;;;3.47;1.27;;;;;;;28.67;24.90;102269.25;4988836;28;20038;-73
2022/07/17 07:47:57;;;;;;;2.72;1.40;;;;;;;28.75;24.56;102271.97;4990805;28;20126;-73
2022/07/17 07:50:26;;;;;;;2.60;1.15;;;;;;;28.85;24.34;102271.75;4989754;28;20062;-73
2022/07/17 07:52:55;;;;;;;3.60;1.13;;;;;;;28.92;24.63;102283.91;4987803;28;20452;-75
2022/07/17 07:55:23;;;;;;;1.67;1.00;;;;;;;29.01;24.75;102290.31;4988726;28;20066;-73
2022/07/17 07:58:03;;;;;;;3.05;1.15;;;;;;;29.12;23.79;102290.75;4991149;28;20399;-77
2022/07/17 08:00:31;;;;;;;3.13;1.30;;;;;;;29.15;23.78;102293.13;4988637;28;20392;-75
2022/07/17 08:03:00;;;;;;;2.70;1.05;;;;;;;29.24;23.96;102293.09;4988521;28;20042;-75
2022/07/17 08:05:28;;;;;;;3.53;1.17;;;;;;;29.31;23.82;102294.06;4984603;28;20046;-74
2022/07/17 08:07:57;;;;;;;2.78;1.20;;;;;;;29.38;23.73;102301.53;4990818;28;20174;-76
2022/07/17 08:10:25;;;;;;;3.50;1.50;;;;;;;29.44;23.58;102299.88;4971917;28;20489;-74
2022/07/17 08:12:53;;;;;;;3.67;1.17;;;;;;;29.52;23.57;102309.06;4989060;28;20084;-76
2022/07/17 08:15:23;;;;;;;2.88;1.15;;;;;;;29.60;22.96;102299.69;4987749;28;20535;-75
2022/07/17 08:17:53;;;;;;;4.43;1.55;;;;;;;29.66;23.34;102301.72;4987949;28;20040;-75
2022/07/17 08:20:22;;;;;;;3.13;1.10;;;;;;;29.70;23.43;102294.69;4971256;28;20050;-75
2022/07/17 08:22:50;;;;;;;3.13;1.05;;;;;;;29.79;23.47;102307.53;4985782;28;20077;-74
2022/07/17 08:25:35;;;;;;;3.03;1.08;;;;;;;29.87;23.14;102304.63;4980251;28;20038;-76
2022/07/17 08:28:05;;;;;;;2.42;1.20;;;;;;;29.96;23.15;102305.44;4992246;28;20133;-72
2022/07/17 08:30:36;;;;;;;2.85;1.20;;;;;;;30.07;23.12;102301.25;4995495;28;20042;-77
2022/07/17 08:33:06;;;;;;;3.22;1.02;;;;;;;30.14;22.66;102308.66;5006203;28;20056;-76
2022/07/17 08:35:35;;;;;;;2.58;0.95;;;;;;;30.23;22.59;102306.63;4994932;28;20201;-78
2022/07/17 08:38:03;;;;;;;2.70;1.30;;;;;;;30.30;22.16;102313.19;4994606;28;20062;-77
2022/07/17 08:40:34;;;;;;;3.22;1.33;;;;;;;30.38;21.88;102313.06;4988007;28;20505;-73
2022/07/17 08:43:05;;;;;;;2.72;1.00;;;;;;;30.45;22.13;102318.75;4990763;28;20133;-77
2022/07/17 08:45:33;;;;;;;4.10;1.30;;;;;;;30.52;22.34;102316.94;4987512;28;20129;-73
2022/07/17 08:48:03;;;;;;;3.50;1.02;;;;;;;30.59;22.15;102310.31;4986929;28;20049;-76
2022/07/17 08:50:33;;;;;;;4.70;1.33;;;;;;;30.66;21.89;102310.38;4987419;28;20544;-73
2022/07/17 08:53:02;;;;;;;2.50;1.00;;;;;;;30.72;22.02;102303.97;4986023;28;20069;-72
2022/07/17 08:55:31;;;;;;;1.85;1.20;;;;;;;30.80;21.89;102300.19;5016687;22;20547;-63
2022/07/17 08:57:59;;;;;;;3.05;1.17;;;;;;;30.86;21.79;102302.19;5041868;28;20051;-64
2022/07/17 09:00:28;;;;;;;2.78;1.20;;;;;;;30.92;21.83;102299.44;5042717;28;20058;-63
2022/07/17 09:02:59;;;;;;;3.35;1.10;;;;;;;30.98;21.93;102295.81;5042422;28;20105;-64
2022/07/17 09:05:30;;;;;;;2.88;1.02;;;;;;;31.06;21.57;102289.19;5036000;28;20045;-62
2022/07/17 09:07:58;;;;;;;2.88;1.30;;;;;;;31.08;21.52;102286.22;5042956;28;20048;-64
2022/07/17 09:10:34;;;;;;;2.78;1.00;;;;;;;31.17;20.62;102288.69;5045104;28;20124;-62
2022/07/17 09:13:13;;;;;;;2.95;1.30;;;;;;;31.17;21.05;102297.09;5046666;28;20094;-69
2022/07/17 09:15:42;;;;;;;2.95;1.25;;;;;;;31.19;21.37;102289.34;5045089;28;20040;-71
2022/07/17 09:18:13;;;;;;;4.32;1.30;;;;;;;31.21;21.11;102289.16;5044234;28;20053;-70
2022/07/17 09:20:46;;;;;;;1.92;0.90;;;;;;;31.30;20.85;102290.69;5046695;28;20643;-70
2022/07/17 09:27:33;;;;;;;2.92;1.20;;;;;;;31.33;21.35;102288.38;4995438;28;20081;-81
2022/07/17 09:30:05;;;;;;;2.65;1.20;;;;;;;31.42;20.93;102283.47;4972592;28;20054;-80
2022/07/17 09:32:38;;;;;;;3.10;1.10;;;;;;;31.52;20.57;102294.34;5004501;28;20064;-80
2022/07/17 09:35:10;;;;;;;4.35;1.30;;;;;;;31.57;20.92;102297.38;4974979;28;20085;-81
2022/07/17 09:37:40;;;;;;;2.85;1.30;;;;;;;31.63;20.40;102285.34;4976110;28;20054;-81
2022/07/17 09:40:10;;;;;;;2.97;1.27;;;;;;;31.68;20.31;102280.88;4976547;28;20057;-82
2022/07/17 09:42:38;;;;;;;2.97;1.08;;;;;;;31.71;20.53;102290.78;4977880;28;20030;-82
2022/07/17 09:45:09;;;;;;;2.63;1.10;;;;;;;31.77;20.30;102280.69;4979092;28;20049;-80
2022/07/17 09:47:39;;;;;;;2.53;1.10;;;;;;;31.80;20.28;102281.13;4982056;28;20053;-80
2022/07/17 09:50:09;;;;;;;2.70;1.23;;;;;;;31.87;19.98;102286.81;4977187;28;20050;-82
2022/07/17 09:52:41;;;;;;;2.40;1.20;;;;;;;31.89;20.10;102284.63;4975141;28;20042;-80
2022/07/17 09:55:14;;;;;;;3.70;1.40;;;;;;;31.95;19.93;102290.31;4980305;28;20114;-81
2022/07/17 09:58:03;;;;;;;2.38;1.20;;;;;;;32.00;19.43;102289.66;4983859;28;20046;-80
2022/07/17 10:00:32;;;;;;;2.58;1.10;;;;;;;32.04;20.10;102280.59;4998718;28;20070;-80
2022/07/17 10:03:01;;;;;;;2.97;1.20;;;;;;;32.12;19.63;102279.56;5028505;28;20067;-80
2022/07/17 10:05:33;;;;;;;1.40;1.00;;;;;;;32.18;19.93;102275.06;5052125;28;20120;-80
2022/07/17 10:08:03;;;;;;;2.83;1.27;;;;;;;32.26;19.50;102287.00;5043994;28;20092;-81
2022/07/17 10:10:32;;;;;;;3.30;1.20;;;;;;;32.30;19.49;102282.66;5021714;28;20060;-80
2022/07/17 10:13:01;;;;;;;3.80;1.38;;;;;;;32.35;19.46;102280.13;5017121;28;20046;-80
2022/07/17 10:15:30;;;;;;;3.78;1.02;;;;;;;32.40;19.18;102277.53;5033674;28;20057;-80
2022/07/17 10:18:05;;;;;;;3.60;1.40;;;;;;;32.50;18.74;102285.56;5038631;28;20043;-78
2022/07/17 10:20:33;;;;;;;2.15;1.20;;;;;;;32.47;19.14;102289.66;5041181;28;20048;-81
2022/07/17 10:23:12;;;;;;;2.88;1.10;;;;;;;32.53;18.71;102289.91;5035564;28;20048;-81
2022/07/17 10:25:43;;;;;;;2.80;1.10;;;;;;;32.52;18.86;102286.22;5055117;28;20042;-80
2022/07/17 10:28:12;;;;;;;2.03;1.30;;;;;;;32.55;19.33;102290.53;5040040;28;20072;-80
2022/07/17 10:30:43;;;;;;;2.88;1.15;;;;;;;32.64;19.03;102292.06;5035370;28;20053;-81
2022/07/17 10:33:17;;;;;;;2.60;1.17;;;;;;;32.69;19.06;102287.59;5036801;28;20045;-79
2022/07/17 10:35:48;;;;;;;2.83;1.20;;;;;;;32.75;18.73;102285.84;5035584;28;20037;-80
2022/07/17 10:38:18;;;;;;;2.13;0.90;;;;;;;32.81;19.21;102290.59;5035560;28;20409;-80
2022/07/17 10:40:48;;;;;;;;;;;;;;;32.55;19.65;102288.56;5036054;28;20292;-81
2022/07/17 10:43:16;;;;;;;2.72;1.25;;;;;;;32.89;19.27;102293.22;5039268;28;19921;-80
2022/07/17 10:45:46;;;;;;;3.58;1.30;;;;;;;33.04;18.50;102284.56;5038687;28;20034;-82
2022/07/17 10:48:16;;;;;;;3.20;1.10;;;;;;;33.08;18.11;102277.41;5040144;28;20083;-80
2022/07/17 10:50:48;;;;;;;4.18;1.52;;;;;;;33.12;18.68;102282.38;5036681;28;20107;-80
2022/07/17 10:53:25;;;;;;;3.88;1.20;;;;;;;33.21;18.04;102291.50;5026439;28;20072;-80
2022/07/17 10:55:56;;;;;;;2.35;1.10;;;;;;;33.23;18.48;102283.72;5038235;28;20088;-80
2022/07/17 10:58:26;;;;;;;2.95;1.27;;;;;;;33.29;18.16;102287.59;5051127;28;20060;-80
2022/07/17 11:01:09;;;;;;;3.83;1.20;;;;;;;33.35;17.71;102284.81;5019080;28;20125;-79
2022/07/17 11:03:41;;;;;;;3.78;1.40;;;;;;;33.38;17.96;102278.72;5031997;28;20042;-79
2022/07/17 11:06:12;;;;;;;2.53;1.40;;;;;;;33.42;17.93;102282.84;5034160;28;20053;-80
2022/07/17 11:08:48;;;;;;;3.40;1.30;;;;;;;33.51;17.02;102280.66;5028847;28;20129;-78
2022/07/17 11:11:18;;;;;;;2.00;1.13;;;;;;;33.49;17.50;102280.88;5033896;28;20053;-78
2022/07/17 11:14:08;;;;;;;2.72;1.08;;;;;;;33.50;17.54;102278.94;5037711;28;20052;-79
2022/07/17 11:16:36;;;;;;;3.45;1.13;;;;;;;33.47;17.98;102276.53;5035890;28;20041;-79
2022/07/17 11:19:05;;;;;;;2.40;1.20;;;;;;;33.48;17.51;102269.81;5039002;28;20068;-79
2022/07/17 11:21:38;;;;;;;3.13;1.33;;;;;;;33.47;17.97;102270.91;5039185;28;20052;-79
2022/07/17 11:24:08;;;;;;;2.63;1.25;;;;;;;33.51;17.66;102259.00;5038510;28;20048;-80
2022/07/17 11:26:36;;;;;;;1.90;1.10;;;;;;;33.50;17.38;102271.34;5037743;28;20049;-80
2022/07/17 11:29:04;;;;;;;2.80;1.17;;;;;;;33.51;17.90;102261.81;5027935;28;20053;-80
2022/07/17 11:31:33;;;;;;;2.83;1.40;;;;;;;33.53;17.74;102255.94;5041391;28;20071;-80
2022/07/17 11:34:03;;;;;;;3.22;1.20;;;;;;;33.55;17.61;102263.09;5032620;28;24483;-79
2022/07/17 11:36:48;;;;;;;3.33;1.20;;;;;;;33.58;16.86;102259.84;5021997;28;20041;-82
2022/07/17 11:39:19;;;;;;;3.47;1.48;;;;;;;33.57;17.25;102238.38;5039166;28;20102;-80